Portal, North Dakota
Current Conditions -  °F | °C
As of 3:00 AM on Saturday 01 Nov 2014 (Local Time) from CYEN Reporting Station
Clear Clear  
Wind Chill: 24°   Ceiling: Unl
Heat Index: 32°   Visibility: 15mi
Dew Point: 19°   Wind: 10mph
Humidity: 60%   Direction: 130°SE
Pressure: 29.84"   Gusts: NA
Location:  49°N, 102.55°W
Report Text: CYEN 010800Z 13009KT 15SM SKC 00/M07 A2984 RMK SLP131
Loading
Personal Weather Stations






























Interactive Weather Map
Tropical Storm Tracking
New forecast layout! Learn more

10-Day Weather Forecast

Advertisements
Track Severe Weather on mobile